Time;durP1;ratioP1;P1;durP2;ratioP2;P2;SDS_P1;SDS_P2;PMS_P1;PMS_P2;Temp;Humidity;BMP_temperature;BMP_pressure;BME280_temperature;BME280_humidity;BME280_pressure;Samples;Min_cycle;Max_cycle;Signal;HPM_P1;HPM_P2
2024/04/14 00:00:30;;;;;;;7.50;5.55;;;;;;;16.65;64.58;98613.38;5271801;27;20003;-73
2024/04/14 00:02:56;;;;;;;7.50;4.68;;;;;;;16.55;64.74;98602.50;5229315;27;20042;-74
2024/04/14 00:05:21;;;;;;;6.38;4.90;;;;;;;16.59;64.59;98609.03;5250158;27;20347;-73
2024/04/14 00:07:49;;;;;;;7.68;4.93;;;;;;;16.52;64.19;98592.97;5261563;27;20015;-73
2024/04/14 00:10:14;;;;;;;6.07;4.97;;;;;;;16.52;64.92;98603.84;5297810;27;20367;-73
2024/04/14 00:12:40;;;;;;;7.60;5.03;;;;;;;16.54;64.62;98609.84;5270071;27;19995;-73
2024/04/14 00:15:06;;;;;;;6.80;5.35;;;;;;;16.41;64.89;98585.06;5273204;27;20003;-73
2024/04/14 00:17:31;;;;;;;5.97;4.80;;;;;;;16.44;65.12;98598.13;5240655;27;20007;-73
2024/04/14 00:19:56;;;;;;;8.50;5.65;;;;;;;16.44;65.08;98590.78;5265681;27;20002;-73
2024/04/14 00:22:22;;;;;;;10.20;5.70;;;;;;;16.37;64.88;98594.88;5260758;27;20039;-73
2024/04/14 00:24:47;;;;;;;8.63;5.60;;;;;;;16.32;65.63;98587.53;5271941;27;20000;-74
2024/04/14 00:27:13;;;;;;;7.75;5.38;;;;;;;16.19;65.45;98577.19;5274885;27;20003;-74
2024/04/14 00:29:38;;;;;;;8.23;5.45;;;;;;;16.29;65.49;98581.81;5216270;27;20035;-74
2024/04/14 00:32:03;;;;;;;6.75;5.72;;;;;;;16.25;65.50;98575.28;5270816;27;20019;-73
2024/04/14 00:34:29;;;;;;;8.18;6.10;;;;;;;16.19;65.74;98576.38;5246782;27;20489;-74
2024/04/14 00:36:54;;;;;;;6.53;5.78;;;;;;;16.20;65.65;98573.38;5254949;27;20017;-74
2024/04/14 00:39:19;;;;;;;6.55;5.85;;;;;;;16.20;65.59;98578.81;5285005;27;20007;-74
2024/04/14 00:41:45;;;;;;;7.25;5.88;;;;;;;16.12;65.79;98564.97;5242404;27;20007;-74
2024/04/14 00:44:10;;;;;;;8.65;6.28;;;;;;;16.18;65.96;98581.00;5275911;27;20019;-74
2024/04/14 00:46:36;;;;;;;8.32;6.32;;;;;;;16.10;65.96;98567.97;5266299;27;20018;-73
2024/04/14 00:49:02;;;;;;;6.90;5.75;;;;;;;16.14;65.87;98568.22;5238062;27;20006;-73
2024/04/14 00:51:28;;;;;;;6.40;5.72;;;;;;;16.09;66.11;98558.16;5278253;27;20014;-73
2024/04/14 00:53:54;;;;;;;7.78;5.78;;;;;;;16.15;66.09;98569.88;5281714;27;19999;-74
2024/04/14 00:56:21;;;;;;;6.60;5.88;;;;;;;16.20;65.72;98572.56;5264500;27;20006;-74
2024/04/14 00:58:47;;;;;;;6.28;5.68;;;;;;;16.19;65.54;98577.19;5243979;27;20011;-76
2024/04/14 01:01:14;;;;;;;7.60;5.80;;;;;;;16.12;65.97;98565.78;5244824;27;20564;-75
2024/04/14 01:03:40;;;;;;;8.10;6.07;;;;;;;16.15;65.82;98576.09;5234617;27;20017;-74
2024/04/14 01:06:05;;;;;;;7.13;5.85;;;;;;;16.15;66.19;98576.09;5266039;27;20003;-74
2024/04/14 01:08:31;;;;;;;6.53;5.65;;;;;;;16.04;66.18;98558.16;5266600;27;20007;-73
2024/04/14 01:10:56;;;;;;;7.00;5.93;;;;;;;16.05;66.18;98565.22;5271145;27;20003;-73
2024/04/14 01:13:22;;;;;;;8.23;5.78;;;;;;;16.08;66.62;98569.31;5269500;27;20015;-73
2024/04/14 01:15:47;;;;;;;8.10;6.18;;;;;;;15.88;66.39;98541.03;5252637;27;20021;-74
2024/04/14 01:18:13;;;;;;;7.10;5.70;;;;;;;16.03;66.26;98575.56;5244822;27;20370;-72
2024/04/14 01:20:39;;;;;;;8.43;5.13;;;;;;;16.04;66.23;98569.03;5245127;27;20105;-71
2024/04/14 01:23:05;;;;;;;8.98;6.05;;;;;;;16.00;66.58;98558.97;5262210;27;20003;-73
2024/04/14 01:25:30;;;;;;;7.13;5.97;;;;;;;16.05;66.39;98576.09;5272226;27;20018;-74
2024/04/14 01:27:55;;;;;;;6.63;5.93;;;;;;;16.03;66.65;98577.44;5234574;27;20002;-73
2024/04/14 01:30:21;;;;;;;9.30;6.45;;;;;;;16.01;66.96;98564.13;5257388;27;20002;-74
2024/04/14 01:32:47;;;;;;;8.13;6.55;;;;;;;15.97;66.75;98563.03;5241704;27;20391;-72
2024/04/14 01:35:12;;;;;;;7.15;6.25;;;;;;;16.03;66.82;98572.03;5238079;27;20003;-73
2024/04/14 01:37:37;;;;;;;6.45;5.75;;;;;;;15.99;66.30;98571.72;5255146;27;20013;-73
2024/04/14 01:40:03;;;;;;;6.68;5.55;;;;;;;15.82;67.10;98555.69;5214324;27;20082;-74
2024/04/14 01:42:29;;;;;;;7.05;5.38;;;;;;;15.85;66.96;98562.47;5252762;27;20023;-74
2024/04/14 01:44:55;;;;;;;8.55;5.88;;;;;;;15.88;66.88;98564.66;5289274;27;20394;-75
2024/04/14 01:47:20;;;;;;;7.82;5.75;;;;;;;15.83;67.43;98561.94;5227247;27;20075;-74
2024/04/14 01:49:45;;;;;;;8.52;5.95;;;;;;;15.64;67.58;98526.31;5262730;27;19999;-74
2024/04/14 01:52:11;;;;;;;8.07;5.85;;;;;;;15.64;67.33;98536.34;5216235;27;20074;-74
2024/04/14 01:54:36;;;;;;;8.90;6.25;;;;;;;15.62;67.52;98539.34;5247086;27;20011;-74
2024/04/14 01:57:02;;;;;;;8.30;5.97;;;;;;;15.59;67.38;98536.38;5268050;27;20003;-74
2024/04/14 01:59:27;;;;;;;6.78;6.10;;;;;;;15.51;67.92;98545.03;5289981;27;20015;-74
2024/04/14 02:01:52;;;;;;;7.93;6.13;;;;;;;15.45;68.42;98537.97;5251843;27;20516;-74
2024/04/14 02:04:18;;;;;;;7.57;6.10;;;;;;;15.52;68.12;98549.38;5238552;27;20011;-74
2024/04/14 02:06:43;;;;;;;8.43;6.28;;;;;;;15.41;68.59;98534.09;5245073;27;19999;-74
2024/04/14 02:09:09;;;;;;;7.25;6.55;;;;;;;15.43;68.18;98546.31;5258868;27;20011;-73
2024/04/14 02:11:34;;;;;;;6.18;5.57;;;;;;;15.47;69.04;98541.22;5254150;27;20012;-73
2024/04/14 02:13:59;;;;;;;8.82;6.03;;;;;;;15.49;68.45;98545.31;5262194;27;20071;-73
2024/04/14 02:16:25;;;;;;;6.18;5.57;;;;;;;15.47;68.43;98541.22;5257916;27;20013;-74
2024/04/14 02:18:51;;;;;;;7.53;5.90;;;;;;;15.46;68.74;98534.97;5208886;27;20335;-73
2024/04/14 02:21:16;;;;;;;7.50;5.63;;;;;;;15.41;68.74;98524.06;5274883;27;20795;-73
2024/04/14 02:23:41;;;;;;;7.78;6.35;;;;;;;15.49;68.49;98549.91;5229815;27;20011;-73
2024/04/14 02:26:07;;;;;;;7.00;6.30;;;;;;;15.51;68.33;98547.75;5272168;27;19995;-73
2024/04/14 02:28:33;;;;;;;7.68;6.30;;;;;;;15.41;68.60;98536.81;5272126;27;20463;-73
2024/04/14 02:30:59;;;;;;;7.18;6.05;;;;;;;15.42;68.89;98531.13;5236110;27;20082;-72
2024/04/14 02:33:24;;;;;;;6.90;5.75;;;;;;;15.41;68.43;98539.53;5236468;27;19999;-73
2024/04/14 02:35:58;;;;;;;8.93;6.45;;;;;;;15.33;69.13;98540.06;5235112;27;20014;-73
2024/04/14 02:38:24;;;;;;;7.00;6.40;;;;;;;15.24;68.85;98540.56;5273892;27;20073;-75
2024/04/14 02:41:00;;;;;;;7.97;7.18;;;;;;;15.12;69.32;98545.38;5278941;27;20015;-75
2024/04/14 02:43:29;;;;;;;8.70;6.85;;;;;;;15.07;69.40;98544.56;5300417;26;20004;-73
2024/04/14 02:45:55;;;;;;;7.72;6.80;;;;;;;14.90;69.43;98517.63;5250930;27;20017;-74
2024/04/14 02:48:21;;;;;;;9.75;6.95;;;;;;;14.93;70.09;98540.72;5256693;27;20004;-73
2024/04/14 02:50:46;;;;;;;9.27;7.05;;;;;;;14.81;70.04;98527.38;5244549;27;20017;-73
2024/04/14 02:53:12;;;;;;;7.80;6.57;;;;;;;14.85;70.45;98531.16;5291043;26;20007;-73
2024/04/14 02:55:38;;;;;;;11.20;7.10;;;;;;;14.80;70.57;98530.31;5244508;27;20082;-72
2024/04/14 02:58:04;;;;;;;8.27;7.22;;;;;;;14.85;70.52;98528.47;5238266;27;20014;-72
2024/04/14 03:00:29;;;;;;;10.20;7.90;;;;;;;14.86;70.67;98535.53;5242606;27;20026;-74
2024/04/14 03:02:55;;;;;;;8.65;6.72;;;;;;;14.65;70.87;98503.97;5264994;27;20085;-72
2024/04/14 03:05:21;;;;;;;10.23;7.65;;;;;;;14.78;70.57;98522.44;5247044;27;20014;-72
2024/04/14 03:07:46;;;;;;;9.38;7.45;;;;;;;14.72;70.71;98520.81;5237781;27;20352;-73
2024/04/14 03:10:12;;;;;;;7.72;6.70;;;;;;;14.77;70.35;98526.22;5284723;27;20007;-73
2024/04/14 03:12:37;;;;;;;7.85;6.72;;;;;;;14.75;70.98;98533.81;5241085;27;20529;-73
2024/04/14 03:15:03;;;;;;;8.55;7.65;;;;;;;14.66;71.27;98527.25;5303101;21;20399;-74
2024/04/14 03:17:28;;;;;;;8.50;7.63;;;;;;;14.65;71.01;98522.94;5303570;26;20356;-74
2024/04/14 03:19:54;;;;;;;8.18;7.00;;;;;;;14.70;70.93;98533.81;5333971;26;20011;-74
2024/04/14 03:22:19;;;;;;;11.02;7.38;;;;;;;14.67;71.08;98537.03;5307519;27;19997;-74
2024/04/14 03:24:45;;;;;;;9.90;7.47;;;;;;;14.58;71.23;98535.91;5289018;27;20003;-75
2024/04/14 03:27:10;;;;;;;9.10;7.30;;;;;;;14.33;71.28;98490.47;5271179;27;20014;-74
2024/04/14 03:29:35;;;;;;;9.35;7.43;;;;;;;14.59;71.21;98534.81;5295228;27;19998;-75
2024/04/14 03:32:01;;;;;;;8.65;7.22;;;;;;;14.42;71.47;98513.28;5236021;27;20122;-75
2024/04/14 03:34:26;;;;;;;12.73;8.82;;;;;;;14.44;71.48;98521.19;5312106;27;19999;-76
2024/04/14 03:36:52;;;;;;;9.20;7.43;;;;;;;14.43;72.06;98525.78;5251478;27;20017;-76
2024/04/14 03:39:17;;;;;;;8.77;7.80;;;;;;;14.38;72.33;98528.44;5251254;27;20003;-75
2024/04/14 03:41:43;;;;;;;9.07;7.60;;;;;;;14.19;72.65;98523.69;5262565;27;19999;-76
2024/04/14 03:44:16;;;;;;;10.57;7.15;;;;;;;14.16;72.37;98513.34;5264318;27;20003;-75
2024/04/14 03:46:41;;;;;;;10.55;7.50;;;;;;;14.31;72.57;98532.44;5294626;27;20003;-74
2024/04/14 03:49:07;;;;;;;10.90;8.00;;;;;;;14.21;72.37;98521.53;5247702;27;20350;-74
2024/04/14 03:51:34;;;;;;;12.45;8.18;;;;;;;14.33;72.44;98541.13;5268922;27;20002;-74
2024/04/14 03:53:59;;;;;;;11.20;8.52;;;;;;;14.35;72.46;98539.00;5245196;27;19999;-75
2024/04/14 03:56:25;;;;;;;10.05;8.00;;;;;;;14.23;73.03;98525.63;5252521;27;19998;-75
2024/04/14 03:58:50;;;;;;;8.80;7.90;;;;;;;14.20;72.62;98519.88;5260249;27;20326;-75
2024/04/14 04:01:17;;;;;;;9.63;8.35;;;;;;;13.98;73.13;98489.38;5262940;27;20021;-75
2024/04/14 04:03:43;;;;;;;10.02;8.20;;;;;;;14.19;73.02;98529.91;5279425;27;20013;-74
2024/04/14 04:06:08;;;;;;;9.30;8.27;;;;;;;14.17;73.25;98520.38;5250405;27;19994;-74
2024/04/14 04:08:34;;;;;;;8.95;8.05;;;;;;;14.25;72.63;98534.28;5257984;27;19997;-75
2024/04/14 04:11:02;;;;;;;9.20;8.30;;;;;;;14.12;73.25;98526.59;5222014;27;20626;-74
2024/04/14 04:13:27;;;;;;;9.38;7.88;;;;;;;14.12;73.12;98528.50;5258533;27;20445;-74
2024/04/14 04:15:54;;;;;;;8.52;7.72;;;;;;;13.85;73.39;98491.44;5291577;27;20017;-75
2024/04/14 04:18:21;;;;;;;10.18;8.48;;;;;;;14.00;73.71;98519.72;5278625;27;20007;-75
2024/04/14 04:20:54;;;;;;;9.25;7.93;;;;;;;13.96;73.73;98507.75;5256580;27;20007;-75
2024/04/14 04:23:20;;;;;;;8.90;8.00;;;;;;;13.86;73.76;98500.41;5253055;27;20014;-76
2024/04/14 04:25:45;;;;;;;12.15;8.57;;;;;;;13.84;73.88;98506.03;5280291;27;20004;-75
2024/04/14 04:28:10;;;;;;;9.68;8.75;;;;;;;13.86;74.13;98512.00;5277322;27;20002;-75
2024/04/14 04:30:36;;;;;;;9.25;7.97;;;;;;;13.66;74.23;98467.72;5253809;27;20002;-75
2024/04/14 04:33:01;;;;;;;9.32;8.43;;;;;;;13.79;73.81;98497.09;5280938;27;20003;-75
2024/04/14 04:35:27;;;;;;;10.18;8.80;;;;;;;13.91;73.95;98515.88;5294387;27;20075;-75
2024/04/14 04:37:52;;;;;;;9.02;8.13;;;;;;;13.85;74.05;98509.56;5298879;27;20006;-75
2024/04/14 04:40:17;;;;;;;9.30;8.40;;;;;;;13.86;74.20;98501.19;5258527;27;20003;-75
2024/04/14 04:42:43;;;;;;;10.23;8.10;;;;;;;13.88;74.36;98508.25;5257672;27;20054;-75
2024/04/14 04:45:09;;;;;;;12.23;8.13;;;;;;;13.91;74.36;98511.25;5233709;27;20003;-75
2024/04/14 04:47:34;;;;;;;9.02;8.10;;;;;;;13.86;74.29;98514.72;5274935;27;20014;-75
2024/04/14 04:50:00;;;;;;;9.52;8.32;;;;;;;13.78;74.31;98517.91;5306524;26;20003;-75
2024/04/14 04:52:25;;;;;;;9.95;8.95;;;;;;;13.77;74.22;98524.38;5310109;26;20016;-74
2024/04/14 04:54:50;;;;;;;9.40;8.43;;;;;;;13.84;74.38;98538.53;5291560;27;20014;-76
2024/04/14 04:57:16;;;;;;;9.40;8.02;;;;;;;13.93;74.48;98551.63;5300387;27;20005;-75
2024/04/14 04:59:41;;;;;;;11.48;8.55;;;;;;;13.95;74.74;98557.59;5284520;27;20013;-76
2024/04/14 05:02:06;;;;;;;11.15;9.02;;;;;;;13.90;74.83;98557.53;5246128;27;20006;-75
2024/04/14 05:04:32;;;;;;;9.68;8.65;;;;;;;13.92;74.75;98556.22;5292444;27;20042;-76
2024/04/14 05:06:58;;;;;;;11.32;8.75;;;;;;;13.81;75.10;98547.19;5304906;27;20013;-75
2024/04/14 05:09:24;;;;;;;10.55;8.98;;;;;;;13.95;74.88;98554.88;5268196;27;20416;-75
2024/04/14 05:11:50;;;;;;;8.85;8.05;;;;;;;13.88;74.93;98544.28;5270958;27;20020;-75
2024/04/14 05:14:15;;;;;;;11.30;9.32;;;;;;;13.90;75.17;98557.53;5258706;27;20026;-76
2024/04/14 05:16:41;;;;;;;9.15;8.27;;;;;;;13.97;75.40;98568.97;5270990;27;20013;-75
2024/04/14 05:19:06;;;;;;;10.25;8.98;;;;;;;13.80;75.07;98542.84;5248657;27;20007;-75
2024/04/14 05:21:31;;;;;;;10.00;8.45;;;;;;;13.85;74.71;98540.19;5281246;27;20009;-75
2024/04/14 05:23:59;;;;;;;11.55;9.20;;;;;;;14.03;75.49;98563.34;5252262;27;20471;-75
2024/04/14 05:26:24;;;;;;;11.15;9.05;;;;;;;13.98;75.39;98565.22;5271204;27;20001;-74
2024/04/14 05:28:49;;;;;;;13.23;9.63;;;;;;;13.98;75.75;98543.53;5248416;27;20469;-76
2024/04/14 05:31:15;;;;;;;9.52;8.60;;;;;;;14.13;75.80;98568.88;5249555;27;20030;-76
2024/04/14 05:33:40;;;;;;;10.27;8.57;;;;;;;14.15;76.15;98584.84;5270361;27;20008;-76
2024/04/14 05:36:06;;;;;;;9.95;8.55;;;;;;;14.11;76.32;98562.06;5242584;27;20022;-75
2024/04/14 05:38:35;;;;;;;10.82;8.38;;;;;;;14.36;76.34;98583.97;5250604;27;20002;-75
2024/04/14 05:41:01;;;;;;;10.43;8.65;;;;;;;14.23;76.28;98543.75;5256636;27;20065;-75
2024/04/14 05:43:26;;;;;;;9.65;8.57;;;;;;;14.48;77.04;98576.47;5261676;27;19998;-75
2024/04/14 05:45:51;;;;;;;9.52;8.00;;;;;;;14.62;76.59;98598.53;5251686;27;20010;-75
2024/04/14 05:48:17;;;;;;;12.02;8.70;;;;;;;14.72;76.95;98583.16;5261595;27;20142;-75
2024/04/14 05:50:42;;;;;;;8.60;7.80;;;;;;;14.73;76.24;98557.66;5264599;27;20003;-76
2024/04/14 05:53:08;;;;;;;11.02;7.90;;;;;;;14.87;75.78;98558.00;5263053;27;20043;-75
2024/04/14 05:55:33;;;;;;;8.82;7.30;;;;;;;14.91;75.55;98554.50;5274165;27;20456;-75
2024/04/14 05:58:00;;;;;;;9.07;7.72;;;;;;;15.07;74.75;98558.97;5285985;27;20031;-75
2024/04/14 06:00:25;;;;;;;9.55;7.00;;;;;;;15.21;74.38;98560.09;5234715;27;20085;-75
2024/04/14 06:02:51;;;;;;;10.10;6.68;;;;;;;15.44;73.99;98574.28;5240050;27;20003;-76
2024/04/14 06:05:16;;;;;;;8.85;6.85;;;;;;;15.55;73.88;98573.25;5271513;27;20017;-76
2024/04/14 06:07:45;;;;;;;7.57;6.22;;;;;;;15.63;73.48;98572.75;5261936;27;20331;-76
2024/04/14 06:10:12;;;;;;;6.97;6.28;;;;;;;15.54;73.73;98550.72;5236261;27;20045;-75
2024/04/14 06:12:37;;;;;;;7.65;6.75;;;;;;;15.67;73.02;98550.22;5230936;27;20098;-76
2024/04/14 06:15:03;;;;;;;7.70;6.75;;;;;;;15.82;73.62;98571.19;5253855;27;20413;-76
2024/04/14 06:17:29;;;;;;;8.13;6.75;;;;;;;15.81;73.24;98558.66;5257936;27;20162;-76
2024/04/14 06:19:55;;;;;;;8.85;6.68;;;;;;;16.03;72.88;98586.44;5264165;27;20033;-76
2024/04/14 06:22:20;;;;;;;8.07;6.70;;;;;;;16.03;72.36;98577.44;5250642;27;20077;-76
2024/04/14 06:24:46;;;;;;;10.50;6.13;;;;;;;16.14;72.05;98590.78;5280019;27;19998;-75
2024/04/14 06:27:11;;;;;;;8.30;6.65;;;;;;;16.21;72.29;98591.34;5271380;27;20002;-72
2024/04/14 06:29:36;;;;;;;7.68;5.70;;;;;;;16.25;72.49;98578.81;5295672;26;20039;-73
2024/04/14 06:32:02;;;;;;;58.22;46.45;;;;;;;16.39;72.20;98598.94;5259488;27;20006;-72
2024/04/14 06:34:27;;;;;;;60.72;44.63;;;;;;;16.47;71.93;98595.69;5279734;27;20013;-75
2024/04/14 06:36:53;;;;;;;24.55;18.25;;;;;;;16.53;71.59;98578.31;5227806;27;20035;-75
2024/04/14 06:39:18;;;;;;;26.00;20.02;;;;;;;16.45;71.48;98554.34;5292366;27;20006;-75
2024/04/14 06:41:44;;;;;;;50.83;34.60;;;;;;;16.51;71.45;98563.34;5262130;27;20014;-75
2024/04/14 06:44:09;;;;;;;124.13;74.00;;;;;;;16.62;71.27;98569.59;5270959;27;20005;-75
2024/04/14 06:46:34;;;;;;;40.28;25.17;;;;;;;16.74;71.13;98579.09;5244724;27;20010;-76
2024/04/14 06:49:01;;;;;;;41.30;25.77;;;;;;;16.68;70.32;98554.91;5267933;27;20005;-76
2024/04/14 06:51:26;;;;;;;22.73;15.38;;;;;;;16.99;70.56;98602.72;5220814;27;20371;-76
2024/04/14 06:53:51;;;;;;;9.57;8.55;;;;;;;17.06;70.44;98586.94;5290180;27;20003;-76
2024/04/14 06:56:17;;;;;;;8.98;6.40;;;;;;;17.13;70.51;98599.13;5290133;27;20017;-75
2024/04/14 06:58:42;;;;;;;7.18;6.43;;;;;;;17.29;70.16;98599.91;5253687;27;20014;-76
2024/04/14 07:01:07;;;;;;;6.72;5.28;;;;;;;17.47;69.87;98610.19;5290559;27;20027;-75
2024/04/14 07:03:33;;;;;;;8.48;5.40;;;;;;;17.34;69.58;98575.38;5295568;26;20003;-76
2024/04/14 07:06:00;;;;;;;6.82;4.97;;;;;;;17.60;69.19;98608.78;5259299;27;20006;-77
2024/04/14 07:08:25;;;;;;;8.00;5.80;;;;;;;17.68;69.38;98605.50;5281697;27;20013;-76
2024/04/14 07:10:51;;;;;;;9.13;5.72;;;;;;;17.62;68.67;98588.34;5286125;26;20010;-76
2024/04/14 07:13:16;;;;;;;6.53;4.80;;;;;;;17.88;68.64;98611.63;5273517;27;20454;-75
2024/04/14 07:15:41;;;;;;;5.03;4.53;;;;;;;17.86;68.59;98592.03;5247810;27;20013;-76
2024/04/14 07:18:07;;;;;;;4.80;4.40;;;;;;;17.92;69.34;98590.91;5254536;27;20015;-76
2024/04/14 07:20:36;;;;;;;7.47;4.07;;;;;;;18.05;69.29;98594.09;5280300;26;20342;-75
2024/04/14 07:23:01;;;;;;;6.22;4.28;;;;;;;18.03;68.21;98588.13;5270120;27;20003;-76
2024/04/14 07:25:26;;;;;;;4.65;4.15;;;;;;;18.16;67.85;98591.03;5263047;27;20072;-76
2024/04/14 07:27:52;;;;;;;6.43;3.78;;;;;;;18.17;67.65;98586.38;5288071;27;20003;-76
2024/04/14 07:30:17;;;;;;;5.28;3.50;;;;;;;18.13;68.08;98582.59;5290234;27;20013;-76
2024/04/14 07:32:43;;;;;;;4.90;3.95;;;;;;;18.25;68.07;98581.13;5263197;27;20086;-75
2024/04/14 07:35:08;;;;;;;6.80;3.85;;;;;;;18.27;67.22;98578.13;5295753;27;20006;-76
2024/04/14 07:37:33;;;;;;;6.00;3.80;;;;;;;18.43;67.13;98596.81;5289625;27;20394;-76
2024/04/14 07:39:59;;;;;;;5.43;3.70;;;;;;;18.50;67.84;98588.34;5290524;26;20470;-77
2024/04/14 07:42:25;;;;;;;4.18;3.33;;;;;;;18.60;66.81;98593.69;5302297;27;19998;-76
2024/04/14 07:44:50;;;;;;;5.47;4.13;;;;;;;18.59;66.83;98578.44;5248113;27;20035;-76
2024/04/14 07:47:16;;;;;;;4.82;3.50;;;;;;;18.78;67.13;98597.63;5286274;27;20467;-76
2024/04/14 07:49:41;;;;;;;4.47;3.70;;;;;;;18.88;67.05;98592.88;5294784;26;20006;-76
2024/04/14 07:52:07;;;;;;;5.55;3.78;;;;;;;18.91;66.17;98586.03;5277705;27;20017;-76
2024/04/14 07:54:33;;;;;;;6.35;3.67;;;;;;;18.78;66.37;98571.16;5298800;26;20035;-75
2024/04/14 07:56:59;;;;;;;7.45;3.85;;;;;;;19.03;66.61;98587.28;5254740;27;20009;-76
2024/04/14 07:59:24;;;;;;;5.07;3.78;;;;;;;19.04;66.57;98591.63;5268383;27;20017;-76
2024/04/14 08:01:50;;;;;;;4.28;3.53;;;;;;;19.11;65.82;98602.22;5247192;27;20041;-75
2024/04/14 08:04:15;;;;;;;6.18;3.70;;;;;;;19.20;65.50;98606.75;5292788;26;20053;-77
2024/04/14 08:06:41;;;;;;;5.25;3.90;;;;;;;19.10;65.72;98578.72;5287875;27;20412;-77
2024/04/14 08:09:06;;;;;;;5.15;3.72;;;;;;;19.29;65.85;98606.94;5235042;27;20003;-77
2024/04/14 08:11:32;;;;;;;5.85;3.83;;;;;;;19.30;65.86;98609.34;5271444;27;20016;-77
2024/04/14 08:13:57;;;;;;;4.10;3.65;;;;;;;19.28;65.63;98595.19;5237750;27;20007;-77
2024/04/14 08:16:22;;;;;;;5.80;4.38;;;;;;;19.47;65.67;98610.84;5281622;27;20060;-77
2024/04/14 08:18:48;;;;;;;6.47;4.28;;;;;;;19.53;64.54;98591.38;5256546;27;20022;-77
2024/04/14 08:21:15;;;;;;;5.13;4.13;;;;;;;19.39;64.38;98592.38;5274179;27;20009;-77
2024/04/14 08:23:40;;;;;;;7.05;4.25;;;;;;;19.55;63.80;98585.59;5239937;27;20018;-77
2024/04/14 08:26:06;;;;;;;4.75;3.92;;;;;;;19.61;64.05;98604.38;5253093;27;20003;-77
2024/04/14 08:28:31;;;;;;;4.72;4.07;;;;;;;19.69;64.23;98587.34;5285670;27;20010;-77
2024/04/14 08:30:57;;;;;;;4.97;3.63;;;;;;;19.84;63.93;98602.69;5253627;27;20011;-77
2024/04/14 08:33:22;;;;;;;4.47;3.72;;;;;;;19.76;63.31;98595.16;5258943;27;20089;-77
2024/04/14 08:35:48;;;;;;;6.00;3.72;;;;;;;20.10;64.13;98598.50;5245619;27;20007;-77
2024/04/14 08:38:13;;;;;;;5.68;4.07;;;;;;;20.14;63.13;98594.06;5241605;27;20007;-77
2024/04/14 08:40:38;;;;;;;4.75;3.72;;;;;;;20.04;63.57;98583.28;5239734;27;20548;-77
2024/04/14 08:43:04;;;;;;;5.80;3.47;;;;;;;20.32;60.12;98604.22;5289323;27;20471;-77
2024/04/14 08:45:32;;;;;;;7.97;3.20;;;;;;;19.98;60.19;98596.22;5262383;27;20002;-77
2024/04/14 08:47:58;;;;;;;6.97;2.70;;;;;;;20.26;58.93;98602.66;5283252;26;20471;-77
2024/04/14 08:50:24;;;;;;;7.32;3.00;;;;;;;20.28;59.71;98573.06;5277061;27;20371;-77
2024/04/14 08:52:49;;;;;;;3.13;2.53;;;;;;;20.41;58.36;98596.97;5293052;27;20006;-77
2024/04/14 08:55:15;;;;;;;4.90;2.42;;;;;;;20.50;57.71;98597.09;5288954;27;20002;-77
2024/04/14 08:57:41;;;;;;;4.32;2.33;;;;;;;20.70;56.19;98601.41;5277112;27;20014;-77
2024/04/14 09:00:11;;;;;;;3.00;2.20;;;;;;;20.53;54.77;98596.50;5289321;27;20053;-77
2024/04/14 09:02:40;;;;;;;4.25;2.47;;;;;;;20.41;52.88;98550.44;5273749;27;20010;-77
2024/04/14 09:05:07;;;;;;;4.32;2.50;;;;;;;20.67;51.50;98573.53;5284488;27;20006;-77
2024/04/14 09:07:33;;;;;;;2.90;2.00;;;;;;;20.68;51.42;98593.50;5268705;27;19997;-77
2024/04/14 09:09:58;;;;;;;3.58;2.10;;;;;;;20.56;52.76;98574.81;5247930;27;20348;-77
2024/04/14 09:12:24;;;;;;;3.60;2.20;;;;;;;20.73;51.22;98592.59;5277482;27;20016;-77
2024/04/14 09:17:23;;;;;;;4.10;2.30;;;;;;;20.61;51.14;98595.78;5342221;26;20019;-74
2024/04/14 09:19:49;;;;;;;3.80;1.70;;;;;;;20.72;50.75;98580.03;5319020;26;19997;-73
2024/04/14 09:22:15;;;;;;;4.30;2.30;;;;;;;20.91;51.36;98575.31;5281335;26;20461;-74
2024/04/14 09:24:40;;;;;;;3.08;2.05;;;;;;;21.00;52.61;98589.91;5296741;26;19997;-74
2024/04/14 09:27:05;;;;;;;3.28;1.70;;;;;;;21.01;49.94;98591.53;5317041;26;20008;-73
2024/04/14 09:29:31;;;;;;;3.08;1.77;;;;;;;21.04;49.21;98590.94;5299779;26;20001;-73
2024/04/14 09:31:57;;;;;;;4.20;2.60;;;;;;;21.06;48.30;98584.06;5334249;26;20792;-74
2024/04/14 09:34:22;;;;;;;4.47;1.90;;;;;;;20.93;49.03;98589.50;5313381;26;20079;-74
2024/04/14 09:36:51;;;;;;;3.22;1.92;;;;;;;21.02;48.85;98583.03;5313711;26;20625;-74
2024/04/14 09:39:18;;;;;;;2.95;2.22;;;;;;;21.19;49.10;98587.94;5314467;26;20020;-75
2024/04/14 09:41:44;;;;;;;2.42;1.88;;;;;;;21.17;47.83;98590.16;5284784;26;19997;-74
2024/04/14 09:44:11;;;;;;;3.53;2.00;;;;;;;21.16;49.35;98594.03;5320511;26;20019;-74
2024/04/14 09:46:37;;;;;;;3.28;1.80;;;;;;;21.12;48.47;98601.25;5285059;26;19997;-74
2024/04/14 09:49:03;;;;;;;3.22;1.92;;;;;;;21.24;48.55;98596.03;5285189;26;20012;-74
2024/04/14 09:51:29;;;;;;;2.03;1.80;;;;;;;21.52;48.87;98592.19;5297558;26;19997;-73
2024/04/14 09:53:55;;;;;;;4.03;1.95;;;;;;;21.71;48.59;98590.16;5295116;26;20082;-73
2024/04/14 09:56:21;;;;;;;2.08;1.70;;;;;;;21.68;47.50;98573.50;5319700;26;20078;-73
2024/04/14 09:58:46;;;;;;;4.38;2.80;;;;;;;21.72;48.12;98583.56;5313896;26;20375;-72
2024/04/14 10:01:15;;;;;;;8.82;3.80;;;;;;;21.79;48.77;98575.72;5321453;26;20004;-72
2024/04/14 10:03:42;;;;;;;2.13;1.70;;;;;;;21.87;47.07;98571.44;5316928;26;20019;-73
2024/04/14 10:06:08;;;;;;;2.10;1.90;;;;;;;21.57;47.19;98583.88;5302385;26;20011;-73
2024/04/14 10:08:34;;;;;;;3.55;1.83;;;;;;;21.52;48.78;98589.44;5346956;26;20005;-73
2024/04/14 10:11:04;;;;;;;3.15;2.28;;;;;;;21.68;48.16;98585.25;5329809;26;20001;-73
2024/04/14 10:13:30;;;;;;;2.97;2.22;;;;;;;21.61;48.74;98584.88;5305056;26;20005;-73
2024/04/14 10:15:56;;;;;;;3.55;1.88;;;;;;;21.55;48.33;98583.38;5314083;26;20025;-73
2024/04/14 10:18:24;;;;;;;3.83;1.95;;;;;;;21.76;47.90;98564.53;5316632;26;20640;-74
2024/04/14 10:20:50;;;;;;;2.97;1.98;;;;;;;21.90;49.27;98571.66;5320221;26;20086;-73
2024/04/14 10:23:19;;;;;;;2.42;1.70;;;;;;;21.93;49.02;98565.56;5322255;26;20007;-74
2024/04/14 10:25:48;;;;;;;3.83;2.20;;;;;;;21.92;48.58;98561.19;5316332;26;19997;-73
2024/04/14 10:28:21;;;;;;;3.75;1.90;;;;;;;22.16;48.26;98568.31;5313576;26;20012;-74
2024/04/14 10:30:49;;;;;;;2.45;1.80;;;;;;;22.07;48.22;98564.69;5310433;26;20013;-73
2024/04/14 10:33:21;;;;;;;3.13;2.00;;;;;;;22.12;48.33;98557.19;5346565;26;20011;-73
2024/04/14 10:36:05;;;;;;;2.83;1.95;;;;;;;22.28;48.58;98560.34;5319798;26;20020;-73
2024/04/14 10:38:34;;;;;;;3.05;1.95;;;;;;;22.27;49.74;98561.47;5326861;26;20001;-73
2024/04/14 10:41:00;;;;;;;3.13;1.83;;;;;;;22.06;49.68;98530.97;5313101;26;20084;-73
2024/04/14 10:43:26;;;;;;;3.53;2.58;;;;;;;22.32;49.08;98567.66;5287485;26;20009;-73
2024/04/14 10:45:52;;;;;;;4.45;2.20;;;;;;;22.23;50.05;98554.97;5346580;26;20015;-73
2024/04/14 10:48:17;;;;;;;3.70;1.70;;;;;;;22.21;48.84;98558.06;5323143;26;20016;-73
2024/04/14 10:50:42;;;;;;;3.95;2.08;;;;;;;22.38;48.87;98560.13;5287598;26;20001;-73
2024/04/14 10:53:09;;;;;;;4.25;2.58;;;;;;;22.43;49.63;98562.72;5314999;26;20001;-73
2024/04/14 10:55:34;;;;;;;3.53;1.92;;;;;;;22.35;49.19;98539.59;5287430;26;19997;-72
2024/04/14 10:57:59;;;;;;;4.18;1.75;;;;;;;22.66;47.81;98556.16;5290200;27;20041;-74
2024/04/14 11:00:26;;;;;;;4.63;2.00;;;;;;;22.21;49.06;98554.50;5285920;26;20017;-73
2024/04/14 11:02:51;;;;;;;3.50;2.22;;;;;;;22.29;50.08;98546.31;5352920;26;20008;-73
2024/04/14 11:05:17;;;;;;;3.45;2.45;;;;;;;22.44;49.24;98548.69;5285456;26;20109;-72
2024/04/14 11:07:43;;;;;;;3.13;1.85;;;;;;;22.62;47.80;98541.41;5303627;26;19993;-73
2024/04/14 11:10:09;;;;;;;2.33;1.80;;;;;;;22.41;48.24;98546.56;5346338;26;20033;-73
2024/04/14 11:12:34;;;;;;;5.35;2.00;;;;;;;22.51;48.27;98534.53;5325380;26;20012;-73
2024/04/14 11:15:04;;;;;;;3.78;1.98;;;;;;;22.81;46.84;98541.19;5315138;26;20078;-74
2024/04/14 11:17:29;;;;;;;3.88;1.95;;;;;;;22.38;48.22;98516.22;5317020;26;20013;-72
2024/04/14 11:19:57;;;;;;;2.45;2.03;;;;;;;22.58;47.44;98532.16;5315823;26;20009;-72
2024/04/14 11:22:22;;;;;;;2.92;2.08;;;;;;;22.60;47.61;98521.66;5314509;26;20033;-73
2024/04/14 11:24:53;;;;;;;2.38;1.92;;;;;;;22.62;47.17;98522.19;5345876;26;20106;-74
2024/04/14 11:27:20;;;;;;;3.20;1.92;;;;;;;22.65;48.37;98505.09;5316076;26;20074;-74